Time;durP1;ratioP1;P1;durP2;ratioP2;P2;SDS_P1;SDS_P2;PMS_P1;PMS_P2;Temp;Humidity;BMP_temperature;BMP_pressure;BME280_temperature;BME280_humidity;BME280_pressure;Samples;Min_cycle;Max_cycle;Signal;HPM_P1;HPM_P2
2022/01/01 00:01:29;;;;;;;;;;;12.90;99.90;;;;;;5037151;28;19929;-90
2022/01/01 00:03:56;;;;;;;;;;;13.20;99.90;;;;;;5042420;28;19956;-90
2022/01/01 00:06:23;;;;;;;;;;;12.40;99.90;;;;;;5046656;28;19925;-91
2022/01/01 00:08:52;;;;;;;;;;;13.00;99.90;;;;;;5046567;28;19928;-89
2022/01/01 00:11:19;;;;;;;;;;;13.20;99.90;;;;;;5042406;28;19921;-91
2022/01/01 00:13:46;;;;;;;;;;;13.30;99.90;;;;;;5037099;28;19987;-90
2022/01/01 00:16:13;;;;;;;;;;;13.20;99.90;;;;;;5036098;28;20359;-90
2022/01/01 00:18:41;;;;;;;;;;;13.20;99.90;;;;;;5036645;28;19921;-89
2022/01/01 00:21:08;;;;;;;;;;;13.20;99.90;;;;;;5036023;28;19928;-90
2022/01/01 00:23:35;;;;;;;;;;;13.20;99.90;;;;;;5035536;28;19995;-90
2022/01/01 00:26:02;;;;;;;;;;;13.20;99.90;;;;;;5036534;28;19921;-91
2022/01/01 00:28:29;;;;;;;;;;;13.40;99.90;;;;;;5035956;28;19933;-91
2022/01/01 00:30:56;;;;;;;;;;;13.40;99.90;;;;;;5036019;28;19924;-90
2022/01/01 00:33:23;;;;;;;;;;;13.20;99.90;;;;;;5036010;28;19928;-90
2022/01/01 00:35:51;;;;;;;;;;;13.70;99.90;;;;;;5035377;28;19927;-90
2022/01/01 00:38:18;;;;;;;;;;;13.40;99.90;;;;;;5035611;28;19921;-89
2022/01/01 00:40:45;;;;;;;;;;;13.20;99.90;;;;;;5035966;28;19921;-90
2022/01/01 00:43:12;;;;;;;;;;;13.10;99.90;;;;;;5035669;28;19967;-89
2022/01/01 00:45:38;;;;;;;;;;;13.20;99.90;;;;;;5035608;28;19921;-89
2022/01/01 00:48:06;;;;;;;;;;;13.20;99.90;;;;;;5035572;28;19924;-90
2022/01/01 00:50:32;;;;;;;;;;;13.20;99.90;;;;;;5035653;28;20271;-89
2022/01/01 00:53:01;;;;;;;;;;;13.20;99.90;;;;;;5035762;28;19974;-90
2022/01/01 00:55:28;;;;;;;;;;;13.30;99.90;;;;;;5035697;28;20272;-90
2022/01/01 00:57:57;;;;;;;;;;;13.40;99.90;;;;;;5035389;28;19921;-90
2022/01/01 01:00:24;;;;;;;;;;;13.20;99.90;;;;;;5035353;28;19921;-89
2022/01/01 01:02:51;;;;;;;;;;;13.10;99.90;;;;;;5034961;28;19924;-90
2022/01/01 01:05:18;;;;;;;;;;;13.20;99.90;;;;;;5035601;28;20330;-89
2022/01/01 01:07:44;;;;;;;;;;;13.20;99.90;;;;;;5035765;28;19921;-90
2022/01/01 01:10:14;;;;;;;;;;;13.20;99.90;;;;;;5036127;28;19928;-89
2022/01/01 01:12:45;;;;;;;;;;;13.40;99.90;;;;;;5035676;28;19921;-90
2022/01/01 01:15:17;;;;;;;;;;;13.10;99.90;;;;;;5035416;28;19925;-90
2022/01/01 01:17:45;;;;;;;;;;;11.90;99.90;;;;;;5035663;28;19921;-90
2022/01/01 01:20:12;;;;;;;;;;;13.20;99.90;;;;;;5035488;28;19921;-90
2022/01/01 01:22:39;;;;;;;;;;;13.20;99.90;;;;;;5035512;28;19960;-90
2022/01/01 01:25:06;;;;;;;;;;;13.30;99.90;;;;;;5035261;28;19924;-90
2022/01/01 01:27:35;;;;;;;;;;;13.60;99.90;;;;;;5034898;28;19983;-90
2022/01/01 01:30:06;;;;;;;;;;;13.30;99.90;;;;;;5035518;28;19921;-89
2022/01/01 01:32:33;;;;;;;;;;;13.20;99.90;;;;;;5035427;28;19928;-89
2022/01/01 01:35:00;;;;;;;;;;;13.20;99.90;;;;;;5034377;28;20378;-90
2022/01/01 01:37:28;;;;;;;;;;;13.20;99.90;;;;;;5035223;28;19925;-90
2022/01/01 01:39:55;;;;;;;;;;;13.40;99.90;;;;;;5034918;28;19921;-90
2022/01/01 01:42:22;;;;;;;;;;;13.30;99.90;;;;;;5035089;28;19928;-89
2022/01/01 01:44:54;;;;;;;;;;;14.00;99.90;;;;;;5035054;28;19921;-90
2022/01/01 01:47:28;;;;;;;;;;;13.30;99.90;;;;;;5035428;28;19921;-89
2022/01/01 01:49:55;;;;;;;;;;;13.30;99.90;;;;;;5035219;28;19964;-90
2022/01/01 01:52:23;;;;;;;;;;;13.30;99.90;;;;;;5035384;28;20355;-91
2022/01/01 01:54:50;;;;;;;;;;;13.40;99.90;;;;;;5041452;28;19920;-90
2022/01/01 01:57:17;;;;;;;;;;;13.40;99.90;;;;;;5044220;28;19931;-90
2022/01/01 01:59:44;;;;;;;;;;;13.40;99.90;;;;;;5045165;28;19921;-90
2022/01/01 02:02:12;;;;;;;;;;;11.80;99.90;;;;;;5039202;28;19943;-87
2022/01/01 02:04:39;;;;;;;;;;;13.20;99.90;;;;;;5035087;28;20347;-90
2022/01/01 02:07:06;;;;;;;;;;;12.60;99.90;;;;;;5035040;28;19929;-90
2022/01/01 02:09:33;;;;;;;;;;;13.30;99.90;;;;;;5034754;28;19928;-90
2022/01/01 02:12:02;;;;;;;;;;;13.40;99.90;;;;;;5035377;28;19921;-90
2022/01/01 02:14:37;;;;;;;;;;;13.40;99.90;;;;;;5034621;28;19975;-90
2022/01/01 02:17:11;;;;;;;;;;;13.50;99.90;;;;;;5034884;28;20024;-90
2022/01/01 02:19:48;;;;;;;;;;;13.30;99.90;;;;;;5035206;28;20000;-90
2022/01/01 02:22:16;;;;;;;;;;;13.40;99.90;;;;;;5034796;28;20263;-90
2022/01/01 02:24:43;;;;;;;;;;;13.40;99.90;;;;;;5034784;28;20438;-90
2022/01/01 02:27:09;;;;;;;;;;;13.40;99.90;;;;;;5034699;28;19925;-90
2022/01/01 02:29:37;;;;;;;;;;;13.40;99.90;;;;;;5034465;28;19925;-90
2022/01/01 02:32:08;;;;;;;;;;;13.50;99.90;;;;;;5034983;28;19948;-90
2022/01/01 02:34:35;;;;;;;;;;;13.70;99.90;;;;;;5034459;28;19920;-90
2022/01/01 02:37:02;;;;;;;;;;;13.50;99.90;;;;;;5034569;28;19967;-89
2022/01/01 02:39:32;;;;;;;;;;;13.40;99.90;;;;;;5034287;28;19925;-90
2022/01/01 02:41:59;;;;;;;;;;;13.30;99.90;;;;;;5034712;28;19928;-90
2022/01/01 02:44:27;;;;;;;;;;;13.40;99.90;;;;;;5034659;28;20287;-90
2022/01/01 02:46:54;;;;;;;;;;;13.40;99.90;;;;;;5037408;28;19927;-90
2022/01/01 02:49:22;;;;;;;;;;;13.50;99.90;;;;;;5038567;28;19928;-90
2022/01/01 02:51:49;;;;;;;;;;;13.30;99.90;;;;;;5038257;28;20330;-90
2022/01/01 02:54:16;;;;;;;;;;;13.30;99.90;;;;;;5038113;28;19964;-90
2022/01/01 02:56:44;;;;;;;;;;;13.40;99.90;;;;;;5037965;28;19921;-90
2022/01/01 02:59:11;;;;;;;;;;;13.50;99.90;;;;;;5037966;28;19921;-90
2022/01/01 03:01:38;;;;;;;;;;;13.20;99.90;;;;;;5038451;28;19928;-90
2022/01/01 03:04:06;;;;;;;;;;;13.40;99.90;;;;;;5038475;28;20298;-90
2022/01/01 03:06:34;;;;;;;;;;;13.10;99.90;;;;;;5037927;28;20356;-90
2022/01/01 03:09:00;;;;;;;;;;;13.10;99.90;;;;;;5037920;28;19921;-90
2022/01/01 03:11:27;;;;;;;;;;;13.20;99.90;;;;;;5037257;28;19921;-90
2022/01/01 03:13:56;;;;;;;;;;;13.10;99.90;;;;;;5037575;28;20379;-90
2022/01/01 03:16:23;;;;;;;;;;;13.50;99.90;;;;;;5037771;28;20426;-91
2022/01/01 03:18:50;;;;;;;;;;;13.30;99.90;;;;;;5037455;28;19928;-91
2022/01/01 03:21:16;;;;;;;;;;;13.10;99.90;;;;;;5037561;28;19960;-89
2022/01/01 03:23:43;;;;;;;;;;;12.80;99.90;;;;;;5036946;28;20410;-90
2022/01/01 03:26:10;;;;;;;;;;;13.30;99.90;;;;;;5037573;28;19921;-91
2022/01/01 03:28:38;;;;;;;;;;;13.30;99.90;;;;;;5036601;28;19921;-90
2022/01/01 03:31:07;;;;;;;;;;;12.60;99.90;;;;;;5037461;28;19921;-90
2022/01/01 03:33:34;;;;;;;;;;;13.30;99.90;;;;;;5037564;28;20321;-91
2022/01/01 03:36:03;;;;;;;;;;;13.40;99.90;;;;;;5036882;28;20060;-90
2022/01/01 03:38:32;;;;;;;;;;;13.40;99.90;;;;;;5037022;28;19929;-91
2022/01/01 03:40:59;;;;;;;;;;;13.30;99.90;;;;;;5037137;28;19979;-90
2022/01/01 03:43:25;;;;;;;;;;;13.40;99.90;;;;;;5037604;28;20372;-90
2022/01/01 03:45:52;;;;;;;;;;;12.80;99.90;;;;;;5044356;28;19921;-90
2022/01/01 03:48:21;;;;;;;;;;;13.30;99.90;;;;;;5046715;28;19944;-90
2022/01/01 03:50:47;;;;;;;;;;;13.20;99.90;;;;;;5047251;28;19925;-90
2022/01/01 03:53:16;;;;;;;;;;;13.20;99.90;;;;;;5039908;28;19921;-90
2022/01/01 03:55:43;;;;;;;;;;;13.20;99.90;;;;;;5037445;28;19921;-89
2022/01/01 03:58:10;;;;;;;;;;;13.40;99.90;;;;;;5036488;28;19924;-90
2022/01/01 04:00:39;;;;;;;;;;;13.60;99.90;;;;;;5036936;28;19921;-90
2022/01/01 04:03:07;;;;;;;;;;;13.10;99.90;;;;;;5036907;28;19921;-89
2022/01/01 04:05:36;;;;;;;;;;;13.20;99.90;;;;;;5037274;28;19921;-90
2022/01/01 04:08:03;;;;;;;;;;;13.30;99.90;;;;;;5037297;28;19992;-89
2022/01/01 04:10:31;;;;;;;;;;;13.60;99.90;;;;;;5036777;28;20497;-90
2022/01/01 04:12:58;;;;;;;;;;;13.40;99.90;;;;;;5037078;28;19967;-89
2022/01/01 04:15:25;;;;;;;;;;;13.60;99.90;;;;;;5036752;28;19976;-88
2022/01/01 04:17:57;;;;;;;;;;;13.70;99.90;;;;;;5036591;28;20287;-90
2022/01/01 04:20:23;;;;;;;;;;;13.50;99.90;;;;;;5036841;28;20294;-90
2022/01/01 04:22:52;;;;;;;;;;;13.50;99.90;;;;;;5036463;28;19948;-90
2022/01/01 04:25:19;;;;;;;;;;;13.40;99.90;;;;;;5036742;28;20367;-89
2022/01/01 04:27:46;;;;;;;;;;;13.40;99.90;;;;;;5036335;28;20375;-90
2022/01/01 04:30:13;;;;;;;;;;;13.30;99.90;;;;;;5036712;28;19975;-90
2022/01/01 04:32:40;;;;;;;;;;;13.30;99.90;;;;;;5036754;28;19928;-90
2022/01/01 04:35:07;;;;;;;;;;;13.50;99.90;;;;;;5037196;28;19921;-90
2022/01/01 04:37:35;;;;;;;;;;;13.30;99.90;;;;;;5036153;28;19925;-90
2022/01/01 04:40:07;;;;;;;;;;;13.50;99.90;;;;;;5036330;28;19921;-90
2022/01/01 04:42:35;;;;;;;;;;;13.50;99.90;;;;;;5036316;28;19928;-90
2022/01/01 04:45:02;;;;;;;;;;;13.40;99.90;;;;;;5036259;28;19924;-90
2022/01/01 04:47:29;;;;;;;;;;;13.40;99.90;;;;;;5036023;28;20386;-90
2022/01/01 04:49:56;;;;;;;;;;;13.30;99.90;;;;;;5036258;28;19921;-90
2022/01/01 04:52:23;;;;;;;;;;;13.30;99.90;;;;;;5036353;28;19967;-91
2022/01/01 04:54:50;;;;;;;;;;;13.30;99.90;;;;;;5036041;28;20271;-90
2022/01/01 04:57:18;;;;;;;;;;;13.50;99.90;;;;;;5036146;28;19925;-90
2022/01/01 04:59:45;;;;;;;;;;;13.20;99.90;;;;;;5036154;28;19921;-90
2022/01/01 05:02:12;;;;;;;;;;;13.30;99.90;;;;;;5035981;28;19921;-90
2022/01/01 05:04:38;;;;;;;;;;;13.30;99.90;;;;;;5034988;28;19925;-90
2022/01/01 05:07:07;;;;;;;;;;;13.10;99.90;;;;;;5035902;28;19921;-91
2022/01/01 05:09:34;;;;;;;;;;;13.20;99.90;;;;;;5035149;28;20008;-90
2022/01/01 05:12:03;;;;;;;;;;;13.20;99.90;;;;;;5035758;28;19929;-91
2022/01/01 05:14:31;;;;;;;;;;;13.40;99.90;;;;;;5036036;28;19931;-90
2022/01/01 05:16:58;;;;;;;;;;;13.30;99.90;;;;;;5035760;28;19921;-90
2022/01/01 05:19:25;;;;;;;;;;;13.10;99.90;;;;;;5035890;28;19928;-91
2022/01/01 05:21:55;;;;;;;;;;;13.20;99.90;;;;;;5035653;28;19929;-90
2022/01/01 05:24:22;;;;;;;;;;;13.30;99.90;;;;;;5035591;28;20330;-90
2022/01/01 05:26:49;;;;;;;;;;;13.10;99.90;;;;;;5035410;28;19968;-90
2022/01/01 05:29:16;;;;;;;;;;;13.20;99.90;;;;;;5035383;28;19927;-90
2022/01/01 05:31:44;;;;;;;;;;;13.10;99.90;;;;;;5035801;28;19947;-90
2022/01/01 05:34:11;;;;;;;;;;;13.10;99.90;;;;;;5035329;28;19932;-90
2022/01/01 05:36:38;;;;;;;;;;;13.10;99.90;;;;;;5041819;28;19921;-91
2022/01/01 05:39:08;;;;;;;;;;;13.10;99.90;;;;;;5045050;28;20039;-90
2022/01/01 05:41:35;;;;;;;;;;;13.30;99.90;;;;;;5046172;28;19944;-90
2022/01/01 05:44:02;;;;;;;;;;;13.00;99.90;;;;;;5039498;28;19921;-91
2022/01/01 05:46:30;;;;;;;;;;;13.00;99.90;;;;;;5035741;28;19998;-91
2022/01/01 05:48:58;;;;;;;;;;;13.00;99.90;;;;;;5035350;28;19921;-89
2022/01/01 05:51:25;;;;;;;;;;;14.70;99.90;;;;;;5035232;28;19944;-90
2022/01/01 05:53:52;;;;;;;;;;;13.10;99.90;;;;;;5035051;28;19925;-90
2022/01/01 05:56:19;;;;;;;;;;;13.10;99.90;;;;;;5034947;28;19975;-90
2022/01/01 05:58:45;;;;;;;;;;;13.30;99.90;;;;;;5034966;28;19924;-91
2022/01/01 06:01:12;;;;;;;;;;;13.10;99.90;;;;;;5035233;28;19943;-91
2022/01/01 06:03:39;;;;;;;;;;;13.10;99.90;;;;;;5035070;28;19921;-90
2022/01/01 06:06:07;;;;;;;;;;;13.00;99.90;;;;;;5035228;28;19921;-91
2022/01/01 06:08:34;;;;;;;;;;;13.00;99.90;;;;;;5034585;28;20375;-91
2022/01/01 06:11:02;;;;;;;;;;;13.40;99.90;;;;;;5033862;28;20295;-91
2022/01/01 06:13:31;;;;;;;;;;;13.10;99.90;;;;;;5034752;28;19921;-89
2022/01/01 06:15:58;;;;;;;;;;;13.00;99.90;;;;;;5034961;28;19983;-90
2022/01/01 06:18:25;;;;;;;;;;;13.10;99.90;;;;;;5034762;28;19974;-90
2022/01/01 06:20:52;;;;;;;;;;;12.80;99.90;;;;;;5037434;28;19967;-91
2022/01/01 06:23:20;;;;;;;;;;;12.70;99.90;;;;;;5041188;28;19929;-90
2022/01/01 06:25:47;;;;;;;;;;;12.80;99.90;;;;;;5041360;28;19975;-91
2022/01/01 06:28:14;;;;;;;;;;;12.90;99.90;;;;;;5041307;28;19920;-90
2022/01/01 06:30:41;;;;;;;;;;;12.90;99.90;;;;;;5041341;28;19924;-90
2022/01/01 06:33:11;;;;;;;;;;;10.80;99.90;;;;;;5041380;28;19921;-90
2022/01/01 06:35:39;;;;;;;;;;;11.20;99.90;;;;;;5041155;28;19943;-90
2022/01/01 06:38:06;;;;;;;;;;;13.00;99.90;;;;;;5040770;28;19975;-91
2022/01/01 06:40:34;;;;;;;;;;;12.70;99.90;;;;;;5041249;28;19921;-91
2022/01/01 06:43:01;;;;;;;;;;;12.50;99.90;;;;;;5041287;28;19932;-91
2022/01/01 06:45:30;;;;;;;;;;;12.70;99.90;;;;;;5041307;28;20329;-91
2022/01/01 06:47:57;;;;;;;;;;;13.00;99.90;;;;;;5041151;28;20425;-90
2022/01/01 06:50:24;;;;;;;;;;;13.00;99.90;;;;;;5041363;28;19975;-91
2022/01/01 06:52:51;;;;;;;;;;;12.80;99.90;;;;;;5041091;28;19924;-91
2022/01/01 06:55:18;;;;;;;;;;;12.90;99.90;;;;;;5041103;28;19920;-91
2022/01/01 06:57:46;;;;;;;;;;;12.50;99.90;;;;;;5040914;28;19921;-90
2022/01/01 07:00:14;;;;;;;;;;;12.90;99.90;;;;;;5041011;28;20363;-90
2022/01/01 07:02:40;;;;;;;;;;;12.90;99.90;;;;;;5041655;28;20326;-90
2022/01/01 07:05:08;;;;;;;;;;;13.00;99.90;;;;;;5040953;28;19921;-90
2022/01/01 07:07:35;;;;;;;;;;;12.80;99.90;;;;;;5041201;28;19975;-90
2022/01/01 07:10:02;;;;;;;;;;;12.70;99.90;;;;;;5041045;28;19921;-90
2022/01/01 07:12:28;;;;;;;;;;;12.80;99.90;;;;;;5040287;28;20371;-90
2022/01/01 07:14:57;;;;;;;;;;;12.70;99.90;;;;;;5041075;28;19975;-90
2022/01/01 07:17:24;;;;;;;;;;;12.10;99.90;;;;;;5040969;28;19928;-90
2022/01/01 07:19:50;;;;;;;;;;;12.70;99.90;;;;;;5040812;28;19967;-90
2022/01/01 07:22:17;;;;;;;;;;;13.20;99.90;;;;;;5040832;28;19921;-90
2022/01/01 07:24:45;;;;;;;;;;;13.10;99.90;;;;;;5040854;28;20276;-89
2022/01/01 07:27:12;;;;;;;;;;;12.50;99.90;;;;;;5044096;28;19925;-90
2022/01/01 07:29:39;;;;;;;;;;;12.60;99.90;;;;;;5051982;28;19920;-90
2022/01/01 07:32:07;;;;;;;;;;;12.60;99.90;;;;;;5050119;28;19921;-90
2022/01/01 07:34:34;;;;;;;;;;;11.90;99.90;;;;;;5046969;28;19975;-90
2022/01/01 07:37:01;;;;;;;;;;;12.50;99.90;;;;;;5037901;28;19928;-91
2022/01/01 07:39:28;;;;;;;;;;;12.40;99.90;;;;;;5037923;28;20395;-90
2022/01/01 07:41:55;;;;;;;;;;;12.30;99.90;;;;;;5037906;28;19927;-90
2022/01/01 07:44:22;;;;;;;;;;;12.40;99.90;;;;;;5037244;28;19921;-90
2022/01/01 07:46:50;;;;;;;;;;;12.80;99.90;;;;;;5037576;28;19921;-90
2022/01/01 07:49:18;;;;;;;;;;;12.80;99.90;;;;;;5037743;28;20346;-89
2022/01/01 07:51:45;;;;;;;;;;;12.40;99.90;;;;;;5037534;28;20279;-90
2022/01/01 07:54:12;;;;;;;;;;;12.50;99.90;;;;;;5037286;28;19921;-89
2022/01/01 07:56:39;;;;;;;;;;;12.70;99.90;;;;;;5037316;28;19921;-90
2022/01/01 07:59:06;;;;;;;;;;;12.50;99.90;;;;;;5036976;28;19921;-89
2022/01/01 08:01:32;;;;;;;;;;;12.50;99.90;;;;;;5037022;28;19921;-89
2022/01/01 08:04:02;;;;;;;;;;;12.50;99.90;;;;;;5037076;28;19929;-90
2022/01/01 08:06:31;;;;;;;;;;;12.60;99.90;;;;;;5036807;28;19976;-89
2022/01/01 08:08:58;;;;;;;;;;;12.70;99.90;;;;;;5036862;28;19921;-90
2022/01/01 08:11:28;;;;;;;;;;;13.80;99.90;;;;;;5036991;28;19921;-90
2022/01/01 08:13:54;;;;;;;;;;;12.80;99.90;;;;;;5036841;28;20354;-91
2022/01/01 08:16:21;;;;;;;;;;;12.60;99.90;;;;;;5037127;28;19925;-91
2022/01/01 08:18:48;;;;;;;;;;;12.80;99.90;;;;;;5036826;28;19999;-91
2022/01/01 08:21:15;;;;;;;;;;;12.60;99.90;;;;;;5036990;28;19921;-91
2022/01/01 08:23:43;;;;;;;;;;;12.70;99.90;;;;;;5036405;28;19972;-91
2022/01/01 08:26:10;;;;;;;;;;;12.50;99.90;;;;;;5036691;28;19921;-90
2022/01/01 08:28:37;;;;;;;;;;;12.60;99.90;;;;;;5036044;28;19921;-90
2022/01/01 08:31:04;;;;;;;;;;;10.70;99.90;;;;;;5035790;28;19983;-90
2022/01/01 08:33:31;;;;;;;;;;;12.60;99.90;;;;;;5036334;28;19920;-91
2022/01/01 08:35:58;;;;;;;;;;;13.20;99.90;;;;;;5035892;28;19920;-91
2022/01/01 08:38:25;;;;;;;;;;;13.10;99.90;;;;;;5035800;28;19995;-91
2022/01/01 08:40:53;;;;;;;;;;;12.80;99.90;;;;;;5036048;28;19932;-90
2022/01/01 08:43:20;;;;;;;;;;;12.90;99.90;;;;;;5035496;28;19983;-90
2022/01/01 08:45:46;;;;;;;;;;;12.80;99.90;;;;;;5035820;28;20390;-90
2022/01/01 08:48:13;;;;;;;;;;;12.80;99.90;;;;;;5036007;28;19921;-91
2022/01/01 08:50:40;;;;;;;;;;;12.90;99.90;;;;;;5035944;28;19967;-90
2022/01/01 08:53:07;;;;;;;;;;;13.00;99.90;;;;;;5035827;28;19949;-90
2022/01/01 08:55:34;;;;;;;;;;;12.50;99.90;;;;;;5036214;28;19983;-90
2022/01/01 08:58:02;;;;;;;;;;;13.30;99.90;;;;;;5035617;28;19920;-90
2022/01/01 09:00:31;;;;;;;;;;;13.10;99.90;;;;;;5035825;28;19931;-90
2022/01/01 09:02:58;;;;;;;;;;;12.90;99.90;;;;;;5035280;28;19928;-90
2022/01/01 09:05:26;;;;;;;;;;;13.10;99.90;;;;;;5035460;28;19921;-90
2022/01/01 09:07:53;;;;;;;;;;;13.10;99.90;;;;;;5035355;28;19980;-89
2022/01/01 09:10:20;;;;;;;;;;;13.00;99.90;;;;;;5035244;28;19921;-90
2022/01/01 09:12:47;;;;;;;;;;;13.30;99.90;;;;;;5035137;28;19967;-90
2022/01/01 09:15:15;;;;;;;;;;;13.00;99.90;;;;;;5035122;28;19921;-90
2022/01/01 09:17:42;;;;;;;;;;;13.90;99.90;;;;;;5034998;28;19986;-90
2022/01/01 09:20:09;;;;;;;;;;;14.90;99.90;;;;;;5041062;28;19943;-90
2022/01/01 09:22:37;;;;;;;;;;;11.60;99.90;;;;;;5044982;28;19921;-91
2022/01/01 09:25:04;;;;;;;;;;;13.20;99.90;;;;;;5044284;28;19943;-90
2022/01/01 09:27:31;;;;;;;;;;;13.20;99.90;;;;;;5041038;28;19921;-90
2022/01/01 09:29:58;;;;;;;;;;;13.20;99.90;;;;;;5035889;28;19928;-90
2022/01/01 09:32:26;;;;;;;;;;;12.70;99.90;;;;;;5035558;28;19928;-90
2022/01/01 09:34:55;;;;;;;;;;;13.20;99.90;;;;;;5035209;28;19921;-89
2022/01/01 09:37:22;;;;;;;;;;;13.20;99.90;;;;;;5034937;28;19921;-89
2022/01/01 09:39:48;;;;;;;;;;;13.90;99.90;;;;;;5034891;28;19928;-90
2022/01/01 09:42:16;;;;;;;;;;;13.20;99.90;;;;;;5035106;28;19921;-90
2022/01/01 09:44:44;;;;;;;;;;;13.40;99.90;;;;;;5035340;28;19944;-90
2022/01/01 09:47:11;;;;;;;;;;;13.50;99.90;;;;;;5034751;28;19921;-89
2022/01/01 09:49:39;;;;;;;;;;;13.30;99.90;;;;;;5035161;28;19921;-90
2022/01/01 09:52:06;;;;;;;;;;;13.20;99.90;;;;;;5034545;28;19972;-90
2022/01/01 09:54:34;;;;;;;;;;;13.40;99.90;;;;;;5034691;28;20421;-90
2022/01/01 09:57:01;;;;;;;;;;;13.50;99.90;;;;;;5034123;28;20019;-90
2022/01/01 09:59:28;;;;;;;;;;;13.30;99.90;;;;;;5034883;28;19921;-90
2022/01/01 10:01:55;;;;;;;;;;;13.30;99.90;;;;;;5034661;28;19921;-90
2022/01/01 10:04:21;;;;;;;;;;;13.20;99.90;;;;;;5034619;28;19921;-90
2022/01/01 10:07:03;;;;;;;;;;;13.30;99.90;;;;;;5034691;28;19921;-90
2022/01/01 10:09:33;;;;;;;;;;;13.30;99.90;;;;;;5034751;28;19956;-90
2022/01/01 10:11:59;;;;;;;;;;;13.40;99.90;;;;;;5034766;28;19952;-90
2022/01/01 10:14:34;;;;;;;;;;;12.60;99.90;;;;;;5034675;28;19929;-90
2022/01/01 10:17:01;;;;;;;;;;;13.40;99.90;;;;;;5034840;28;20326;-90
2022/01/01 10:19:30;;;;;;;;;;;13.50;99.90;;;;;;5034247;28;19920;-90
2022/01/01 10:21:58;;;;;;;;;;;13.60;99.90;;;;;;5034063;28;20173;-90
2022/01/01 10:24:40;;;;;;;;;;;13.40;99.90;;;;;;5034301;28;19984;-90
2022/01/01 10:29:56;;;;;;;;;;;13.60;99.90;;;;;;5034440;28;19929;-90
2022/01/01 10:32:24;;;;;;;;;;;13.60;99.90;;;;;;5034398;28;19925;-90
2022/01/01 10:34:54;;;;;;;;;;;13.50;99.90;;;;;;5034698;28;19921;-90
2022/01/01 10:37:25;;;;;;;;;;;13.60;99.90;;;;;;5034554;28;19921;-91
2022/01/01 10:39:54;;;;;;;;;;;13.50;99.90;;;;;;5034495;28;20359;-90
2022/01/01 10:42:22;;;;;;;;;;;13.60;99.90;;;;;;5034313;28;19921;-90
2022/01/01 10:44:50;;;;;;;;;;;13.80;99.90;;;;;;5034178;28;19975;-91
2022/01/01 10:47:20;;;;;;;;;;;13.60;99.90;;;;;;5034227;28;19929;-90
2022/01/01 10:50:03;;;;;;;;;;;13.80;99.90;;;;;;5034883;28;20359;-89
2022/01/01 10:52:32;;;;;;;;;;;13.80;99.90;;;;;;5034051;28;19948;-91
2022/01/01 10:55:01;;;;;;;;;;;13.80;99.90;;;;;;5034325;28;20004;-90
2022/01/01 10:57:29;;;;;;;;;;;13.90;99.90;;;;;;5034382;28;19921;-91
2022/01/01 11:00:05;;;;;;;;;;;13.90;99.90;;;;;;5034269;28;19921;-90
2022/01/01 11:02:33;;;;;;;;;;;14.10;99.90;;;;;;5034831;28;19928;-91
2022/01/01 11:04:59;;;;;;;;;;;14.00;99.90;;;;;;5033885;28;19928;-91
2022/01/01 11:07:27;;;;;;;;;;;14.00;99.90;;;;;;5035079;28;20283;-90
2022/01/01 11:09:55;;;;;;;;;;;14.10;99.90;;;;;;5039165;28;20306;-90
2022/01/01 11:12:24;;;;;;;;;;;14.10;99.90;;;;;;5047512;28;19932;-90
2022/01/01 11:14:52;;;;;;;;;;;14.10;99.90;;;;;;5050713;28;19921;-90
2022/01/01 11:17:21;;;;;;;;;;;14.00;99.90;;;;;;5049743;28;19928;-90
2022/01/01 11:19:48;;;;;;;;;;;13.60;99.90;;;;;;5038593;28;19966;-91
2022/01/01 11:22:16;;;;;;;;;;;14.00;99.90;;;;;;5037582;28;19921;-91
2022/01/01 11:24:42;;;;;;;;;;;14.00;99.90;;;;;;5037717;28;19921;-90
2022/01/01 11:27:09;;;;;;;;;;;14.10;99.90;;;;;;5039831;28;19975;-91
2022/01/01 11:29:40;;;;;;;;;;;14.10;99.90;;;;;;5037674;28;19924;-90
2022/01/01 11:32:08;;;;;;;;;;;14.40;99.90;;;;;;5037492;28;19921;-90
2022/01/01 11:34:38;;;;;;;;;;;14.10;99.90;;;;;;5037368;28;20398;-90
2022/01/01 11:37:05;;;;;;;;;;;14.20;99.90;;;;;;5036871;28;20440;-90
2022/01/01 11:39:33;;;;;;;;;;;14.20;99.90;;;;;;5036616;28;19921;-90
2022/01/01 11:42:09;;;;;;;;;;;14.40;99.90;;;;;;5037363;28;19921;-90
2022/01/01 11:44:36;;;;;;;;;;;14.20;99.90;;;;;;5037167;28;19944;-90
2022/01/01 11:47:05;;;;;;;;;;;14.00;99.90;;;;;;5038391;28;19983;-90
2022/01/01 11:49:32;;;;;;;;;;;14.30;99.90;;;;;;5036821;28;19921;-90
2022/01/01 11:52:00;;;;;;;;;;;14.10;99.90;;;;;;5037715;28;19943;-90
2022/01/01 11:54:27;;;;;;;;;;;14.20;99.90;;;;;;5037289;28;19921;-90
2022/01/01 11:56:56;;;;;;;;;;;14.20;99.90;;;;;;5037171;28;19998;-89
2022/01/01 11:59:24;;;;;;;;;;;14.20;99.90;;;;;;5036943;28;19925;-90
2022/01/01 12:01:52;;;;;;;;;;;14.20;99.90;;;;;;5036803;28;20390;-90
2022/01/01 12:04:28;;;;;;;;;;;14.50;99.90;;;;;;5036530;28;19921;-90
2022/01/01 12:06:58;;;;;;;;;;;14.30;99.90;;;;;;5036345;28;20371;-90
2022/01/01 12:09:25;;;;;;;;;;;16.30;99.90;;;;;;5036480;28;20403;-89
2022/01/01 12:11:54;;;;;;;;;;;14.20;99.90;;;;;;5036432;28;19921;-89
2022/01/01 12:14:24;;;;;;;;;;;14.40;99.90;;;;;;5036458;28;19967;-89
2022/01/01 12:16:52;;;;;;;;;;;14.30;99.90;;;;;;5036907;28;19967;-89
2022/01/01 12:19:21;;;;;;;;;;;14.30;99.90;;;;;;5035785;28;19984;-90
2022/01/01 12:21:49;;;;;;;;;;;14.20;99.90;;;;;;5036165;28;19943;-90
2022/01/01 12:24:19;;;;;;;;;;;14.50;99.90;;;;;;5036345;28;20402;-90
2022/01/01 12:26:53;;;;;;;;;;;14.00;99.90;;;;;;5036670;28;19944;-90
2022/01/01 12:29:22;;;;;;;;;;;14.10;99.90;;;;;;5035781;28;19928;-91
2022/01/01 12:31:56;;;;;;;;;;;13.90;99.90;;;;;;5036231;28;19921;-90
2022/01/01 12:34:23;;;;;;;;;;;14.40;99.90;;;;;;5035766;28;20291;-90
2022/01/01 12:36:55;;;;;;;;;;;14.20;99.90;;;;;;5036110;28;20363;-91
2022/01/01 12:39:23;;;;;;;;;;;14.40;99.90;;;;;;5036928;28;19983;-91
2022/01/01 12:41:50;;;;;;;;;;;14.70;99.90;;;;;;5036244;28;19920;-90
2022/01/01 12:44:18;;;;;;;;;;;14.40;99.90;;;;;;5035433;28;20308;-90
2022/01/01 12:46:47;;;;;;;;;;;14.30;99.90;;;;;;5036877;28;20023;-90
2022/01/01 12:49:14;;;;;;;;;;;14.00;99.90;;;;;;5035233;28;19978;-90
2022/01/01 12:51:41;;;;;;;;;;;14.00;99.90;;;;;;5035410;28;19928;-90
2022/01/01 12:54:11;;;;;;;;;;;14.20;99.90;;;;;;5035193;28;20462;-90
2022/01/01 12:56:39;;;;;;;;;;;14.20;99.90;;;;;;5035521;28;19921;-90
2022/01/01 12:59:07;;;;;;;;;;;14.60;99.90;;;;;;5035089;28;19925;-90
2022/01/01 13:01:35;;;;;;;;;;;14.20;99.90;;;;;;5035865;28;19921;-90
2022/01/01 13:04:03;;;;;;;;;;;14.10;99.90;;;;;;5044311;28;19921;-90
2022/01/01 13:06:31;;;;;;;;;;;12.20;99.90;;;;;;5044934;28;20372;-90
2022/01/01 13:09:02;;;;;;;;;;;14.30;99.90;;;;;;5043874;28;19920;-89
2022/01/01 13:11:30;;;;;;;;;;;14.10;99.90;;;;;;5035441;28;20379;-90
2022/01/01 13:13:57;;;;;;;;;;;14.00;99.90;;;;;;5034333;28;19921;-91
2022/01/01 13:16:27;;;;;;;;;;;13.80;99.90;;;;;;5035199;28;19921;-90
2022/01/01 13:18:54;;;;;;;;;;;14.30;99.90;;;;;;5035721;28;20330;-90
2022/01/01 13:21:22;;;;;;;;;;;14.10;99.90;;;;;;5035682;28;19928;-90
2022/01/01 13:23:49;;;;;;;;;;;14.40;99.90;;;;;;5035591;28;19943;-91
2022/01/01 13:26:16;;;;;;;;;;;14.30;99.90;;;;;;5035991;28;19929;-90
2022/01/01 13:28:44;;;;;;;;;;;14.30;99.90;;;;;;5035720;28;19947;-89
2022/01/01 13:31:12;;;;;;;;;;;14.30;99.90;;;;;;5034861;28;19921;-89
2022/01/01 13:33:40;;;;;;;;;;;14.30;99.90;;;;;;5034884;28;19925;-90
2022/01/01 13:36:07;;;;;;;;;;;14.20;99.90;;;;;;5036300;28;19928;-90
2022/01/01 13:38:35;;;;;;;;;;;14.60;99.90;;;;;;5035118;28;20063;-90
2022/01/01 13:41:03;;;;;;;;;;;14.70;99.90;;;;;;5035216;28;19952;-90
2022/01/01 13:43:31;;;;;;;;;;;14.60;99.90;;;;;;5035444;28;19921;-90
2022/01/01 13:46:06;;;;;;;;;;;14.70;99.90;;;;;;5035476;28;19921;-91
2022/01/01 13:48:40;;;;;;;;;;;14.60;99.90;;;;;;5035011;28;19921;-90
2022/01/01 13:51:07;;;;;;;;;;;14.70;99.90;;;;;;5035040;28;19947;-90
2022/01/01 13:53:34;;;;;;;;;;;14.70;99.90;;;;;;5035225;28;19921;-91
2022/01/01 13:56:03;;;;;;;;;;;14.30;99.90;;;;;;5034975;28;19928;-90
2022/01/01 13:58:30;;;;;;;;;;;14.40;99.90;;;;;;5035174;28;20280;-91
2022/01/01 14:00:59;;;;;;;;;;;14.50;99.90;;;;;;5034741;28;20389;-90
2022/01/01 14:03:27;;;;;;;;;;;14.60;99.90;;;;;;5035163;28;19921;-90
2022/01/01 14:05:54;;;;;;;;;;;14.70;99.90;;;;;;5034853;28;20429;-90
2022/01/01 14:08:23;;;;;;;;;;;14.50;99.90;;;;;;5035654;28;19921;-90
2022/01/01 14:10:54;;;;;;;;;;;14.50;99.90;;;;;;5034582;28;19924;-90
2022/01/01 14:13:31;;;;;;;;;;;14.60;99.90;;;;;;5034930;28;19921;-90
2022/01/01 14:15:59;;;;;;;;;;;14.80;99.90;;;;;;5034509;28;19928;-91
2022/01/01 14:18:31;;;;;;;;;;;14.80;99.90;;;;;;5034585;28;20015;-91
2022/01/01 14:20:59;;;;;;;;;;;14.70;99.90;;;;;;5034467;28;19928;-90
2022/01/01 14:23:26;;;;;;;;;;;14.80;99.90;;;;;;5034825;28;19920;-91